Time;durP1;ratioP1;P1;durP2;ratioP2;P2;SDS_P1;SDS_P2;PMS_P1;PMS_P2;Temp;Humidity;BMP_temperature;BMP_pressure;BME280_temperature;BME280_humidity;BME280_pressure;Samples;Min_cycle;Max_cycle;Signal;HPM_P1;HPM_P2
2022/05/07 00:02:25;;;;;;;19.57;17.47;;;;;;;;;;5084517;28;20202;-81
2022/05/07 00:05:31;;;;;;;20.60;16.23;;;;;;;;;;5072642;28;20226;-80
2022/05/07 00:08:35;;;;;;;18.20;16.27;;;;;;;;;;5072629;28;20209;-80
2022/05/07 00:11:39;;;;;;;19.93;16.30;;;;;;;;;;5061224;28;20213;-81
2022/05/07 00:14:44;;;;;;;18.10;15.57;;;;;;;;;;5052685;28;20187;-80
2022/05/07 00:18:05;;;;;;;18.60;15.60;;;;;;;;;;5052496;28;20222;-81
2022/05/07 00:21:09;;;;;;;18.30;16.10;;;;;;;;;;5095068;28;20210;-81
2022/05/07 00:24:14;;;;;;;18.50;16.20;;;;;;;;;;5092939;28;20181;-80
2022/05/07 00:27:18;;;;;;;21.07;15.97;;;;;;;;;;5051715;28;20226;-81
2022/05/07 00:30:22;;;;;;;17.97;16.13;;;;;;;;;;5067947;28;20189;-81
2022/05/07 00:33:26;;;;;;;21.63;17.77;;;;;;;;;;5057258;28;20198;-80
2022/05/07 00:36:32;;;;;;;19.77;16.50;;;;;;;;;;5080575;28;20603;-80
2022/05/07 00:39:37;;;;;;;19.13;16.77;;;;;;;;;;5045689;28;20199;-80
2022/05/07 00:42:41;;;;;;;20.43;17.20;;;;;;;;;;5094886;28;20552;-81
2022/05/07 00:45:46;;;;;;;20.50;18.33;;;;;;;;;;5096289;28;20304;-82
2022/05/07 00:48:50;;;;;;;19.40;17.30;;;;;;;;;;5089605;28;20210;-81
2022/05/07 00:51:55;;;;;;;21.70;18.73;;;;;;;;;;5072189;28;20216;-80
2022/05/07 00:54:59;;;;;;;22.07;19.67;;;;;;;;;;5095579;28;20537;-80
2022/05/07 00:58:04;;;;;;;21.87;18.87;;;;;;;;;;5095646;28;20201;-80
2022/05/07 01:01:08;;;;;;;22.20;19.83;;;;;;;;;;5082788;28;20199;-80
2022/05/07 01:04:12;;;;;;;21.07;18.77;;;;;;;;;;5071721;28;20214;-80
2022/05/07 01:07:17;;;;;;;20.27;18.17;;;;;;;;;;5074249;28;20229;-81
2022/05/07 01:10:21;;;;;;;21.80;19.47;;;;;;;;;;5086071;28;20197;-82
2022/05/07 01:13:27;;;;;;;22.70;19.77;;;;;;;;;;5093253;28;20201;-82
2022/05/07 01:16:33;;;;;;;21.77;17.97;;;;;;;;;;5104396;28;20198;-82
2022/05/07 01:19:37;;;;;;;21.63;19.33;;;;;;;;;;5097591;28;20171;-81
2022/05/07 01:22:44;;;;;;;19.83;17.37;;;;;;;;;;5087157;28;20190;-82
2022/05/07 01:25:51;;;;;;;19.40;17.40;;;;;;;;;;5096959;28;20221;-82
2022/05/07 01:29:01;;;;;;;25.00;20.13;;;;;;;;;;5073656;28;20188;-82
2022/05/07 01:32:07;;;;;;;21.27;18.97;;;;;;;;;;5084773;28;20262;-82
2022/05/07 01:35:11;;;;;;;22.23;19.07;;;;;;;;;;5053472;28;20183;-82
2022/05/07 01:38:19;;;;;;;24.07;19.50;;;;;;;;;;5080644;28;20198;-82
2022/05/07 01:41:24;;;;;;;20.63;18.20;;;;;;;;;;5085456;28;20206;-82
2022/05/07 01:44:29;;;;;;;23.53;20.53;;;;;;;;;;5111705;28;20225;-82
2022/05/07 01:51:07;;;;;;;23.63;20.20;;;;;;;;;;5115178;28;20194;-82
2022/05/07 01:54:14;;;;;;;20.07;17.83;;;;;;;;;;5091617;28;20199;-82
2022/05/07 01:57:19;;;;;;;21.57;18.30;;;;;;;;;;5096554;28;20215;-82
2022/05/07 02:00:23;;;;;;;22.60;19.33;;;;;;;;;;5076513;28;20186;-82
2022/05/07 02:03:28;;;;;;;21.20;18.90;;;;;;;;;;5088924;28;20189;-81
2022/05/07 02:06:32;;;;;;;20.07;17.87;;;;;;;;;;5104186;28;20236;-81
2022/05/07 02:09:38;;;;;;;23.63;19.23;;;;;;;;;;5104364;28;20199;-81
2022/05/07 02:12:43;;;;;;;23.53;20.43;;;;;;;;;;5089606;28;20201;-81
2022/05/07 02:15:47;;;;;;;22.53;18.13;;;;;;;;;;5084072;28;20217;-81
2022/05/07 02:18:52;;;;;;;21.27;18.30;;;;;;;;;;5072549;28;20209;-81
2022/05/07 02:21:56;;;;;;;21.70;18.73;;;;;;;;;;5084090;28;20205;-82
2022/05/07 02:25:02;;;;;;;20.00;17.90;;;;;;;;;;5090824;28;20213;-82
2022/05/07 02:28:07;;;;;;;19.90;17.77;;;;;;;;;;5092217;28;20205;-81
2022/05/07 02:31:11;;;;;;;20.20;17.47;;;;;;;;;;5104011;28;20189;-82
2022/05/07 02:34:15;;;;;;;20.40;17.43;;;;;;;;;;5091124;28;20191;-81
2022/05/07 02:37:20;;;;;;;21.63;18.63;;;;;;;;;;5099999;28;20221;-81
2022/05/07 02:40:29;;;;;;;21.90;19.17;;;;;;;;;;5103644;28;20201;-81
2022/05/07 02:43:35;;;;;;;24.00;19.10;;;;;;;;;;5103486;28;20221;-81
2022/05/07 02:46:46;;;;;;;21.80;17.73;;;;;;;;;;5102503;28;20233;-80
2022/05/07 02:49:51;;;;;;;22.37;19.00;;;;;;;;;;5076396;28;20198;-81
2022/05/07 02:52:56;;;;;;;24.43;19.50;;;;;;;;;;5082539;28;20212;-81
2022/05/07 02:56:00;;;;;;;22.20;19.43;;;;;;;;;;5087359;28;20221;-81
2022/05/07 02:59:05;;;;;;;26.07;18.80;;;;;;;;;;5094580;28;20183;-81
2022/05/07 03:02:10;;;;;;;23.13;18.63;;;;;;;;;;5085674;28;20163;-81
2022/05/07 03:05:15;;;;;;;22.77;19.60;;;;;;;;;;5062632;28;20218;-81
2022/05/07 03:08:21;;;;;;;25.87;19.80;;;;;;;;;;5062531;28;20210;-81
2022/05/07 03:11:26;;;;;;;24.27;20.00;;;;;;;;;;5068183;28;20202;-81
2022/05/07 03:14:32;;;;;;;23.60;19.23;;;;;;;;;;5078200;28;20227;-81
2022/05/07 03:17:37;;;;;;;21.73;19.40;;;;;;;;;;5082504;28;20225;-81
2022/05/07 03:20:42;;;;;;;24.67;21.10;;;;;;;;;;5081021;28;20198;-81
2022/05/07 03:23:50;;;;;;;23.10;19.93;;;;;;;;;;5102555;28;20197;-81
2022/05/07 03:26:55;;;;;;;23.43;20.90;;;;;;;;;;5113430;28;20237;-81
2022/05/07 03:30:01;;;;;;;23.70;21.07;;;;;;;;;;5114107;28;20198;-81
2022/05/07 03:33:12;;;;;;;26.40;21.80;;;;;;;;;;5095634;28;20195;-81
2022/05/07 03:36:21;;;;;;;24.43;21.17;;;;;;;;;;5082396;28;20228;-81
2022/05/07 03:39:27;;;;;;;24.67;20.67;;;;;;;;;;5082348;28;20189;-81
2022/05/07 03:42:33;;;;;;;23.60;21.00;;;;;;;;;;5071697;28;20660;-81
2022/05/07 03:45:38;;;;;;;27.00;22.90;;;;;;;;;;5108619;22;20241;-90
2022/05/07 03:48:42;;;;;;;26.63;22.43;;;;;;;;;;5064691;28;20225;-91
2022/05/07 03:55:10;;;;;;;25.70;20.73;;;;;;;;;;5062159;28;20241;-90
2022/05/07 03:58:17;;;;;;;25.73;21.83;;;;;;;;;;5039066;28;20194;-90
2022/05/07 04:01:22;;;;;;;26.13;21.27;;;;;;;;;;5050424;28;20191;-91
2022/05/07 04:04:26;;;;;;;23.37;19.77;;;;;;;;;;5050315;28;20668;-90
2022/05/07 04:07:30;;;;;;;26.63;21.20;;;;;;;;;;5065782;28;20194;-90
2022/05/07 04:10:44;;;;;;;22.30;18.90;;;;;;;;;;5081569;28;20189;-90
2022/05/07 04:13:51;;;;;;;23.83;20.50;;;;;;;;;;5047355;28;20202;-90
2022/05/07 04:16:56;;;;;;;22.30;19.90;;;;;;;;;;5049183;28;20206;-91
2022/05/07 04:20:01;;;;;;;21.90;19.27;;;;;;;;;;5081371;28;20198;-90
2022/05/07 04:23:07;;;;;;;23.60;21.07;;;;;;;;;;5070068;28;20206;-90
2022/05/07 04:26:12;;;;;;;22.17;19.67;;;;;;;;;;5076888;28;20226;-90
2022/05/07 04:29:22;;;;;;;23.57;18.67;;;;;;;;;;5049677;28;20553;-90
2022/05/07 04:32:36;;;;;;;21.60;19.13;;;;;;;;;;5040051;28;20553;-90
2022/05/07 04:35:42;;;;;;;21.83;19.37;;;;;;;;;;5061122;28;20226;-90
2022/05/07 04:38:46;;;;;;;25.73;22.93;;;;;;;;;;5049861;28;20194;-90
2022/05/07 04:41:57;;;;;;;23.67;21.10;;;;;;;;;;5057783;28;20203;-90
2022/05/07 04:45:11;;;;;;;25.07;21.97;;;;;;;;;;5049685;28;20239;-89
2022/05/07 04:48:31;;;;;;;24.87;20.63;;;;;;;;;;5040389;28;20193;-89
2022/05/07 04:51:37;;;;;;;24.57;21.40;;;;;;;;;;5050492;28;20191;-89
2022/05/07 04:54:46;;;;;;;23.63;21.10;;;;;;;;;;5050015;28;20222;-89
2022/05/07 04:57:50;;;;;;;25.47;21.97;;;;;;;;;;5066510;28;20549;-89
2022/05/07 05:00:55;;;;;;;26.17;21.87;;;;;;;;;;5061043;28;20198;-89
2022/05/07 05:04:02;;;;;;;23.77;21.27;;;;;;;;;;5049592;28;20542;-89
2022/05/07 05:07:09;;;;;;;23.73;20.27;;;;;;;;;;5061199;28;20217;-90
2022/05/07 05:10:15;;;;;;;24.30;20.93;;;;;;;;;;5069496;28;20198;-90
2022/05/07 05:13:24;;;;;;;23.17;20.50;;;;;;;;;;5059037;28;20651;-89
2022/05/07 05:16:30;;;;;;;28.90;22.67;;;;;;;;;;5071104;28;20711;-89
2022/05/07 05:19:42;;;;;;;26.77;22.57;;;;;;;;;;5072877;28;20214;-90
2022/05/07 05:22:50;;;;;;;25.07;21.47;;;;;;;;;;5084561;28;20210;-90
2022/05/07 05:25:57;;;;;;;25.57;21.77;;;;;;;;;;5071828;28;20229;-89
2022/05/07 05:29:13;;;;;;;28.10;22.43;;;;;;;;;;5052826;28;20207;-90
2022/05/07 05:32:17;;;;;;;25.60;21.80;;;;;;;;;;5073341;28;20692;-89
2022/05/07 05:35:23;;;;;;;26.33;21.60;;;;;;;;;;5077618;28;20226;-89
2022/05/07 05:38:30;;;;;;;22.93;20.50;;;;;;;;;;5064713;28;20186;-89
2022/05/07 05:41:35;;;;;;;26.53;23.07;;;;;;;;;;5076760;28;20210;-90
2022/05/07 05:44:41;;;;;;;21.13;18.37;;;;;;;;;;5067614;28;20230;-90
2022/05/07 05:47:49;;;;;;;25.77;21.67;;;;;;;;;;5053059;28;20597;-89
2022/05/07 05:50:54;;;;;;;24.10;20.67;;;;;;;;;;5064522;28;20677;-89
2022/05/07 05:53:58;;;;;;;30.00;22.47;;;;;;;;;;5058331;28;20198;-90
2022/05/07 05:57:04;;;;;;;24.57;21.80;;;;;;;;;;5042349;28;20194;-89
2022/05/07 06:00:09;;;;;;;25.50;20.93;;;;;;;;;;5043244;28;20210;-89
2022/05/07 06:03:19;;;;;;;28.60;21.10;;;;;;;;;;5068275;28;20221;-89
2022/05/07 06:06:23;;;;;;;25.27;20.00;;;;;;;;;;5060190;28;20233;-89
2022/05/07 06:09:28;;;;;;;21.77;19.50;;;;;;;;;;5062656;28;20206;-90
2022/05/07 06:12:33;;;;;;;22.90;19.53;;;;;;;;;;5067725;28;20198;-89
2022/05/07 06:15:38;;;;;;;23.43;20.17;;;;;;;;;;5051535;28;20221;-90
2022/05/07 06:18:44;;;;;;;21.83;19.53;;;;;;;;;;5060236;28;20206;-90
2022/05/07 06:21:49;;;;;;;20.47;18.40;;;;;;;;;;5051981;28;20210;-90
2022/05/07 06:28:32;;;;;;;19.13;17.13;;;;;;;;;;5064103;28;20182;-90
2022/05/07 06:31:37;;;;;;;22.90;17.40;;;;;;;;;;5053750;28;20558;-89
2022/05/07 06:34:41;;;;;;;23.93;18.07;;;;;;;;;;5051637;28;20226;-89
2022/05/07 06:37:48;;;;;;;19.43;16.50;;;;;;;;;;5058477;28;20595;-89
2022/05/07 06:40:52;;;;;;;19.73;17.60;;;;;;;;;;5083269;28;20209;-89
2022/05/07 06:43:58;;;;;;;19.80;16.73;;;;;;;;;;5042007;28;20214;-89
2022/05/07 06:47:07;;;;;;;22.30;17.47;;;;;;;;;;5065370;28;20222;-90
2022/05/07 06:50:11;;;;;;;20.60;17.30;;;;;;;;;;5051993;28;20199;-90
2022/05/07 06:53:16;;;;;;;21.10;18.23;;;;;;;;;;5051974;28;20190;-88
2022/05/07 06:56:20;;;;;;;19.07;16.67;;;;;;;;;;5040238;28;20230;-89
2022/05/07 06:59:26;;;;;;;20.77;17.83;;;;;;;;;;5041366;28;20298;-88
2022/05/07 07:02:30;;;;;;;25.10;17.50;;;;;;;;;;5047579;28;20194;-88
2022/05/07 07:05:35;;;;;;;24.03;18.33;;;;;;;;;;5060376;28;20715;-88
2022/05/07 07:08:40;;;;;;;22.23;18.97;;;;;;;;;;5049883;28;20190;-88
2022/05/07 07:11:47;;;;;;;20.63;18.40;;;;;;;;;;5050649;28;20657;-88
2022/05/07 07:14:51;;;;;;;19.43;17.43;;;;;;;;;;5050906;28;20581;-88
2022/05/07 07:17:55;;;;;;;25.73;16.93;;;;;;;;;;5051019;28;20194;-89
2022/05/07 07:21:01;;;;;;;19.77;17.77;;;;;;;;;;5055524;28;20697;-88
2022/05/07 07:24:08;;;;;;;19.80;17.37;;;;;;;;;;5059237;28;20190;-88
2022/05/07 07:27:14;;;;;;;19.00;16.83;;;;;;;;;;5059150;28;20304;-88
2022/05/07 07:30:19;;;;;;;20.60;17.13;;;;;;;;;;5039738;28;20193;-88
2022/05/07 07:33:23;;;;;;;18.27;15.53;;;;;;;;;;5050866;28;20186;-88
2022/05/07 07:36:27;;;;;;;23.00;16.47;;;;;;;;;;5055538;28;20217;-88
2022/05/07 07:39:32;;;;;;;18.83;16.10;;;;;;;;;;5070992;28;20194;-88
2022/05/07 07:42:37;;;;;;;19.00;16.10;;;;;;;;;;5038774;28;20191;-88
2022/05/07 07:49:06;;;;;;;17.30;15.60;;;;;;;;;;5066369;28;20203;-88
2022/05/07 07:52:09;;;;;;;16.50;14.80;;;;;;;;;;5063688;28;20210;-90
2022/05/07 07:55:13;;;;;;;17.27;14.70;;;;;;;;;;5042714;28;20230;-90
2022/05/07 07:58:18;;;;;;;17.00;13.57;;;;;;;;;;5038760;28;20202;-90
2022/05/07 08:01:22;;;;;;;18.40;13.80;;;;;;;;;;5039011;28;20195;-90
2022/05/07 08:04:26;;;;;;;15.03;12.53;;;;;;;;;;5058120;28;20206;-90
2022/05/07 08:14:17;;;;;;;14.40;12.63;;;;;;;;;;5049935;28;20194;-90
2022/05/07 08:17:20;;;;;;;15.03;12.63;;;;;;;;;;5052052;28;20198;-90
2022/05/07 08:20:25;;;;;;;12.70;11.50;;;;;;;;;;5060671;28;20202;-90
2022/05/07 08:23:29;;;;;;;12.67;11.10;;;;;;;;;;5063073;28;20665;-90
2022/05/07 08:26:34;;;;;;;14.43;11.97;;;;;;;;;;5072634;28;20222;-90
2022/05/07 08:29:37;;;;;;;12.70;11.40;;;;;;;;;;5057226;28;20209;-90
2022/05/07 08:32:41;;;;;;;12.97;11.47;;;;;;;;;;5070312;28;20553;-90
2022/05/07 08:35:46;;;;;;;15.87;10.83;;;;;;;;;;5066049;28;20233;-90
2022/05/07 08:38:51;;;;;;;14.00;10.67;;;;;;;;;;5058057;28;20182;-90
2022/05/07 08:41:56;;;;;;;10.93;9.67;;;;;;;;;;5091710;28;20201;-90
2022/05/07 08:45:01;;;;;;;12.53;9.90;;;;;;;;;;5058443;28;20226;-90
2022/05/07 08:48:05;;;;;;;12.30;10.77;;;;;;;;;;5069668;28;20218;-90
2022/05/07 08:51:12;;;;;;;10.43;9.40;;;;;;;;;;5053888;28;20191;-90
2022/05/07 08:54:18;;;;;;;14.27;9.93;;;;;;;;;;5046100;28;20187;-89
2022/05/07 08:57:22;;;;;;;10.97;9.70;;;;;;;;;;5061334;28;20183;-89
2022/05/07 09:00:27;;;;;;;10.50;9.10;;;;;;;;;;5064819;28;20190;-90
2022/05/07 09:03:41;;;;;;;15.03;9.30;;;;;;;;;;5052438;28;20195;-90
2022/05/07 09:06:54;;;;;;;12.30;9.13;;;;;;;;;;5073109;28;20665;-90
2022/05/07 09:09:58;;;;;;;9.53;8.57;;;;;;;;;;5062418;28;20204;-90
2022/05/07 09:13:15;;;;;;;9.73;8.83;;;;;;;;;;5054407;28;20199;-90
2022/05/07 09:16:20;;;;;;;8.70;7.57;;;;;;;;;;5066091;28;20689;-90
2022/05/07 09:19:27;;;;;;;9.40;8.20;;;;;;;;;;5065213;28;20182;-91
2022/05/07 09:22:31;;;;;;;8.77;7.27;;;;;;;;;;5061344;28;20178;-90
2022/05/07 09:25:43;;;;;;;9.13;8.23;;;;;;;;;;5053037;28;20231;-91
2022/05/07 09:28:47;;;;;;;8.87;7.97;;;;;;;;;;5041600;28;20211;-90
2022/05/07 09:31:51;;;;;;;9.70;8.27;;;;;;;;;;5064351;28;20191;-91
2022/05/07 09:38:24;;;;;;;7.23;6.63;;;;;;;;;;5069264;28;20665;-90
2022/05/07 09:41:28;;;;;;;10.17;7.77;;;;;;;;;;5063519;28;20195;-91
2022/05/07 09:44:33;;;;;;;8.13;7.30;;;;;;;;;;5075065;28;20227;-91
2022/05/07 09:47:38;;;;;;;9.47;7.43;;;;;;;;;;5082783;23;20231;-88
2022/05/07 10:00:37;;;;;;;10.43;7.87;;;;;;;;;;5071510;28;20662;-86
2022/05/07 10:04:14;;;;;;;9.40;8.40;;;;;;;;;;5066494;28;20530;-86
2022/05/07 10:07:25;;;;;;;8.70;6.97;;;;;;;;;;5031673;28;20678;-87
2022/05/07 10:10:33;;;;;;;10.80;7.97;;;;;;;;;;5049143;28;20647;-86
2022/05/07 10:13:38;;;;;;;8.33;7.53;;;;;;;;;;5055082;28;20184;-86
2022/05/07 10:16:42;;;;;;;12.43;8.13;;;;;;;;;;5078210;28;20185;-87
2022/05/07 10:19:49;;;;;;;9.30;7.67;;;;;;;;;;5084079;28;20527;-87
2022/05/07 10:22:56;;;;;;;8.97;7.47;;;;;;;;;;5068989;28;20207;-87
2022/05/07 10:26:02;;;;;;;9.43;8.40;;;;;;;;;;5071484;28;20198;-86
2022/05/07 10:29:07;;;;;;;9.47;7.77;;;;;;;;;;5054555;28;20220;-87
2022/05/07 10:32:11;;;;;;;7.87;7.07;;;;;;;;;;5074376;28;20670;-86
2022/05/07 10:35:49;;;;;;;7.40;6.57;;;;;;;;;;5054608;28;20184;-86
2022/05/07 10:38:53;;;;;;;7.70;6.53;;;;;;;;;;5074729;28;20214;-87
2022/05/07 10:42:01;;;;;;;9.60;7.53;;;;;;;;;;5061140;28;20190;-86
2022/05/07 10:45:19;;;;;;;9.27;8.30;;;;;;;;;;5081820;28;20198;-86
2022/05/07 10:48:22;;;;;;;9.30;8.43;;;;;;;;;;5070873;28;20223;-86
2022/05/07 10:51:37;;;;;;;11.77;9.10;;;;;;;;;;5083018;28;20186;-86
2022/05/07 10:54:41;;;;;;;12.80;10.57;;;;;;;;;;5060446;28;20555;-87
2022/05/07 10:57:47;;;;;;;12.73;11.40;;;;;;;;;;5042693;28;20231;-87
2022/05/07 11:00:53;;;;;;;13.43;12.23;;;;;;;;;;5070439;28;20194;-87
2022/05/07 11:04:07;;;;;;;12.57;11.20;;;;;;;;;;5042896;28;20565;-86
2022/05/07 11:07:19;;;;;;;13.53;12.23;;;;;;;;;;5070370;28;20222;-87
2022/05/07 11:10:23;;;;;;;13.03;11.70;;;;;;;;;;5071450;28;20664;-87
2022/05/07 11:13:27;;;;;;;13.77;11.10;;;;;;;;;;5056603;28;20203;-86
2022/05/07 11:16:31;;;;;;;11.87;10.63;;;;;;;;;;5074493;28;20207;-88
2022/05/07 11:19:37;;;;;;;11.63;10.50;;;;;;;;;;5082348;28;20182;-86
2022/05/07 11:22:46;;;;;;;14.60;10.60;;;;;;;;;;5055768;28;20203;-86
2022/05/07 11:25:51;;;;;;;12.20;10.90;;;;;;;;;;5072292;28;20202;-86
2022/05/07 11:28:55;;;;;;;13.50;10.40;;;;;;;;;;5057845;28;20222;-86
2022/05/07 11:32:10;;;;;;;12.03;10.50;;;;;;;;;;5062027;28;20199;-86
2022/05/07 11:35:14;;;;;;;11.80;10.67;;;;;;;;;;5061636;28;20206;-86
2022/05/07 11:38:18;;;;;;;11.97;10.77;;;;;;;;;;5050338;28;20581;-86
2022/05/07 11:41:22;;;;;;;10.57;9.57;;;;;;;;;;5073737;28;20222;-86
2022/05/07 11:47:59;;;;;;;10.97;9.87;;;;;;;;;;5073009;28;20234;-86
2022/05/07 11:51:03;;;;;;;10.80;9.70;;;;;;;;;;5060726;28;20203;-87
2022/05/07 11:54:09;;;;;;;10.63;9.57;;;;;;;;;;5069825;28;20178;-87
2022/05/07 11:57:14;;;;;;;8.97;8.17;;;;;;;;;;5061241;28;20558;-87
2022/05/07 12:00:22;;;;;;;11.10;9.87;;;;;;;;;;5062572;28;20180;-87
2022/05/07 12:03:27;;;;;;;9.60;8.70;;;;;;;;;;5061367;28;20199;-87
2022/05/07 12:06:31;;;;;;;9.50;8.60;;;;;;;;;;5073086;28;20184;-87
2022/05/07 12:09:35;;;;;;;9.53;8.57;;;;;;;;;;5080175;28;20214;-87
2022/05/07 12:12:40;;;;;;;9.07;8.17;;;;;;;;;;5081883;28;20202;-85
2022/05/07 12:19:09;;;;;;;8.70;7.10;;;;;;;;;;5095854;28;20178;-85
2022/05/07 12:32:44;;;;;;;9.97;6.30;;;;;;;;;;5094925;28;20179;-86
2022/05/07 12:35:49;;;;;;;13.00;6.63;;;;;;;;;;5106763;28;20199;-85
2022/05/07 12:38:59;;;;;;;7.03;6.43;;;;;;;;;;5089238;28;20226;-83
2022/05/07 12:42:08;;;;;;;6.50;5.83;;;;;;;;;;5095061;28;20519;-84
2022/05/07 12:45:12;;;;;;;7.57;6.50;;;;;;;;;;5097509;28;20178;-84
2022/05/07 12:48:17;;;;;;;7.43;6.73;;;;;;;;;;5072887;28;20604;-85
2022/05/07 12:51:21;;;;;;;7.77;7.00;;;;;;;;;;5096518;28;20187;-85
2022/05/07 12:54:25;;;;;;;9.80;8.33;;;;;;;;;;5071658;28;20186;-85
2022/05/07 12:57:30;;;;;;;12.47;10.63;;;;;;;;;;5048576;28;20266;-85
2022/05/07 13:00:36;;;;;;;9.63;8.20;;;;;;;;;;5076696;28;20203;-85
2022/05/07 13:03:44;;;;;;;9.40;8.47;;;;;;;;;;5053101;28;20183;-84
2022/05/07 13:06:49;;;;;;;9.03;7.80;;;;;;;;;;5065175;28;20176;-84
2022/05/07 13:09:53;;;;;;;8.30;7.50;;;;;;;;;;5061618;28;20211;-85
2022/05/07 13:12:58;;;;;;;8.67;7.83;;;;;;;;;;5077700;28;20207;-84
2022/05/07 13:16:03;;;;;;;9.03;7.47;;;;;;;;;;5074217;28;20188;-85
2022/05/07 13:19:06;;;;;;;7.90;7.10;;;;;;;;;;5075837;28;20515;-85
2022/05/07 13:22:10;;;;;;;5.13;4.73;;;;;;;;;;5064187;28;20179;-84
2022/05/07 13:25:15;;;;;;;6.70;5.17;;;;;;;;;;5064278;28;20187;-84
2022/05/07 13:28:19;;;;;;;5.80;5.03;;;;;;;;;;5057661;28;20227;-84
2022/05/07 13:31:23;;;;;;;5.73;4.80;;;;;;;;;;5076649;28;20620;-84
2022/05/07 13:34:27;;;;;;;5.33;4.87;;;;;;;;;;5045746;28;20189;-85
2022/05/07 13:37:33;;;;;;;4.67;3.83;;;;;;;;;;5048489;28;20220;-85
2022/05/07 13:40:38;;;;;;;3.57;3.27;;;;;;;;;;5067359;28;20178;-85
2022/05/07 13:43:42;;;;;;;4.07;3.67;;;;;;;;;;5083846;28;20195;-85
2022/05/07 13:46:46;;;;;;;2.80;2.60;;;;;;;;;;5084102;28;20188;-86
2022/05/07 13:49:51;;;;;;;2.97;2.77;;;;;;;;;;5084455;28;20211;-85
2022/05/07 13:52:55;;;;;;;4.50;4.10;;;;;;;;;;5084653;28;20183;-85
2022/05/07 13:55:59;;;;;;;9.43;5.80;;;;;;;;;;5103558;28;20186;-85
2022/05/07 13:59:04;;;;;;;6.80;5.80;;;;;;;;;;5081451;28;20182;-85
2022/05/07 14:02:08;;;;;;;5.97;5.37;;;;;;;;;;5097977;28;20195;-86
2022/05/07 14:05:16;;;;;;;6.97;6.00;;;;;;;;;;5073139;28;20188;-85
2022/05/07 14:08:20;;;;;;;6.43;5.83;;;;;;;;;;5089267;28;20223;-85
2022/05/07 14:11:25;;;;;;;6.77;5.13;;;;;;;;;;5105252;28;20295;-85
2022/05/07 14:14:29;;;;;;;4.90;4.50;;;;;;;;;;5077813;28;20183;-85
2022/05/07 14:17:38;;;;;;;8.30;7.37;;;;;;;;;;5101238;28;20218;-85
2022/05/07 14:20:42;;;;;;;8.43;4.93;;;;;;;;;;5061545;28;20208;-85
2022/05/07 14:23:47;;;;;;;5.70;5.20;;;;;;;;;;5068444;28;20187;-85
2022/05/07 14:26:51;;;;;;;5.50;5.00;;;;;;;;;;5098344;28;20226;-86
2022/05/07 14:29:56;;;;;;;8.77;5.33;;;;;;;;;;5079955;28;20211;-85
2022/05/07 14:33:00;;;;;;;10.50;5.77;;;;;;;;;;5046926;28;20192;-85
2022/05/07 14:36:05;;;;;;;6.40;5.80;;;;;;;;;;5065722;28;20191;-85
2022/05/07 14:39:09;;;;;;;6.00;5.40;;;;;;;;;;5065149;28;20188;-85
2022/05/07 14:42:13;;;;;;;6.63;5.40;;;;;;;;;;5066502;28;20649;-86
2022/05/07 14:45:17;;;;;;;5.90;5.30;;;;;;;;;;5097292;28;20194;-85
2022/05/07 14:48:21;;;;;;;6.60;5.80;;;;;;;;;;5094838;28;20226;-85
2022/05/07 14:51:29;;;;;;;7.97;5.73;;;;;;;;;;5083288;28;20207;-85
2022/05/07 14:54:33;;;;;;;12.63;7.00;;;;;;;;;;5078800;28;20195;-86
2022/05/07 14:57:37;;;;;;;7.27;6.00;;;;;;;;;;5061578;28;20222;-85
2022/05/07 15:00:41;;;;;;;8.13;6.23;;;;;;;;;;5053842;28;20188;-85
2022/05/07 15:03:47;;;;;;;7.07;6.10;;;;;;;;;;5046821;28;20181;-85
2022/05/07 15:06:51;;;;;;;6.67;6.07;;;;;;;;;;5077442;28;20571;-85
2022/05/07 15:13:18;;;;;;;5.87;5.37;;;;;;;;;;5081422;28;20196;-85
2022/05/07 15:16:22;;;;;;;7.50;5.90;;;;;;;;;;5053598;28;20178;-85
2022/05/07 15:19:26;;;;;;;7.33;6.03;;;;;;;;;;5080899;28;20186;-85
2022/05/07 15:22:31;;;;;;;6.10;5.50;;;;;;;;;;5094141;28;20195;-86
2022/05/07 15:25:35;;;;;;;7.93;6.10;;;;;;;;;;5056728;28;20203;-86
2022/05/07 15:28:39;;;;;;;6.60;6.00;;;;;;;;;;5084960;28;20218;-86
2022/05/07 15:36:48;;;;;;;5.77;4.83;;;;;;;;;;5053577;28;20531;-85
2022/05/07 15:38:30;;;;;;;5.30;4.67;;;;;;;;;;5078662;28;20222;-85
2022/05/07 15:41:35;;;;;;;7.67;4.77;;;;;;;;;;5066915;28;20209;-84
2022/05/07 15:44:41;;;;;;;6.70;6.10;;;;;;;;;;5100205;28;20179;-85
2022/05/07 15:47:45;;;;;;;7.03;5.00;;;;;;;;;;5121912;22;20232;-88
2022/05/07 15:50:55;;;;;;;6.50;5.33;;;;;;;;;;5029741;28;20552;-87
2022/05/07 15:54:01;;;;;;;8.37;6.13;;;;;;;;;;5042117;28;20200;-87
2022/05/07 15:57:07;;;;;;;6.77;5.80;;;;;;;;;;5020601;28;20205;-86
2022/05/07 16:00:12;;;;;;;5.77;5.23;;;;;;;;;;5006011;28;20196;-86
2022/05/07 16:03:17;;;;;;;6.37;5.77;;;;;;;;;;5040755;28;20191;-87
2022/05/07 16:06:21;;;;;;;5.50;5.00;;;;;;;;;;5009048;28;20180;-87
2022/05/07 16:09:25;;;;;;;6.97;5.40;;;;;;;;;;5041418;28;20223;-86
2022/05/07 16:12:30;;;;;;;15.90;6.00;;;;;;;;;;5007551;28;20203;-89
2022/05/07 16:15:34;;;;;;;7.90;6.00;;;;;;;;;;5006715;28;20196;-87
2022/05/07 16:18:39;;;;;;;10.70;5.87;;;;;;;;;;5038777;28;20215;-90
2022/05/07 16:21:44;;;;;;;8.13;5.33;;;;;;;;;;5030365;28;20172;-90
2022/05/07 16:24:57;;;;;;;4.57;4.17;;;;;;;;;;5028949;28;20188;-90
2022/05/07 16:28:01;;;;;;;3.97;3.63;;;;;;;;;;5010622;28;20220;-89
2022/05/07 16:31:05;;;;;;;8.63;4.47;;;;;;;;;;5035808;28;20208;-86
2022/05/07 16:34:10;;;;;;;4.17;3.77;;;;;;;;;;5038542;28;20180;-90
2022/05/07 16:37:14;;;;;;;4.17;3.77;;;;;;;;;;5008598;28;20200;-89
2022/05/07 16:40:18;;;;;;;3.63;3.33;;;;;;;;;;5001634;28;20205;-90
2022/05/07 16:43:23;;;;;;;4.57;3.17;;;;;;;;;;5008591;28;20655;-89
2022/05/07 16:46:27;;;;;;;5.67;3.73;;;;;;;;;;5016159;28;20191;-90
2022/05/07 16:49:34;;;;;;;3.57;3.27;;;;;;;;;;5020944;28;20236;-89
2022/05/07 16:52:41;;;;;;;5.57;3.50;;;;;;;;;;5010269;28;20184;-89
2022/05/07 16:55:45;;;;;;;3.80;3.30;;;;;;;;;;5017855;28;20196;-89
2022/05/07 16:58:49;;;;;;;4.60;2.97;;;;;;;;;;5013938;28;20216;-89
2022/05/07 17:01:54;;;;;;;4.00;3.63;;;;;;;;;;5010141;28;20189;-89
2022/05/07 17:04:59;;;;;;;3.53;3.20;;;;;;;;;;5020923;28;20196;-88
2022/05/07 17:08:03;;;;;;;4.87;3.47;;;;;;;;;;5022500;28;20221;-88
2022/05/07 17:11:07;;;;;;;3.50;3.20;;;;;;;;;;5013530;28;20590;-88
2022/05/07 17:14:12;;;;;;;3.60;3.30;;;;;;;;;;5026130;28;20196;-88
2022/05/07 17:17:16;;;;;;;3.20;2.90;;;;;;;;;;5027118;28;20185;-88
2022/05/07 17:20:20;;;;;;;3.00;2.80;;;;;;;;;;5037338;28;20177;-88
2022/05/07 17:23:24;;;;;;;3.50;3.00;;;;;;;;;;5014313;28;20204;-88
2022/05/07 17:26:28;;;;;;;3.10;2.80;;;;;;;;;;5003383;28;20189;-88
2022/05/07 17:29:33;;;;;;;3.03;2.83;;;;;;;;;;5013968;28;20225;-88
2022/05/07 17:32:37;;;;;;;3.33;2.77;;;;;;;;;;5025977;28;20189;-88
2022/05/07 17:35:41;;;;;;;3.63;3.33;;;;;;;;;;5025920;28;20636;-88
2022/05/07 17:38:47;;;;;;;3.63;2.87;;;;;;;;;;5025353;28;20564;-88
2022/05/07 17:41:51;;;;;;;3.17;2.93;;;;;;;;;;5013909;28;20192;-88
2022/05/07 17:44:55;;;;;;;3.80;3.43;;;;;;;;;;5014562;28;20193;-88
2022/05/07 17:51:22;;;;;;;4.07;2.97;;;;;;;;;;5025321;28;20213;-88
2022/05/07 17:54:27;;;;;;;5.27;3.30;;;;;;;;;;5025746;28;20181;-88
2022/05/07 17:57:32;;;;;;;3.77;3.47;;;;;;;;;;5024932;28;20201;-88
2022/05/07 18:00:36;;;;;;;3.30;3.00;;;;;;;;;;5025417;28;20185;-88
2022/05/07 18:03:40;;;;;;;3.20;2.90;;;;;;;;;;5013455;28;20196;-88
2022/05/07 18:06:45;;;;;;;3.53;3.23;;;;;;;;;;5015311;28;20188;-88
2022/05/07 18:09:52;;;;;;;4.00;3.60;;;;;;;;;;5014262;28;20228;-88
2022/05/07 18:12:57;;;;;;;4.47;3.73;;;;;;;;;;5002504;28;20181;-88
2022/05/07 18:16:01;;;;;;;4.67;3.70;;;;;;;;;;5024844;28;20185;-88
2022/05/07 18:19:07;;;;;;;4.07;3.60;;;;;;;;;;5024310;28;20224;-88
2022/05/07 18:22:11;;;;;;;4.73;4.00;;;;;;;;;;5013524;28;20501;-88
2022/05/07 18:25:15;;;;;;;4.13;3.73;;;;;;;;;;5002470;28;20185;-88
2022/05/07 18:28:20;;;;;;;4.40;4.00;;;;;;;;;;5024138;28;20220;-88
2022/05/07 18:31:23;;;;;;;5.33;4.20;;;;;;;;;;5013584;28;20213;-88
2022/05/07 18:34:28;;;;;;;5.10;4.50;;;;;;;;;;5002154;28;20185;-88
2022/05/07 18:44:19;;;;;;;4.40;4.00;;;;;;;;;;5007957;28;20208;-88
2022/05/07 18:47:23;;;;;;;4.60;4.20;;;;;;;;;;5012871;28;20205;-88
2022/05/07 18:50:27;;;;;;;13.83;8.23;;;;;;;;;;5013486;28;20209;-88
2022/05/07 18:53:31;;;;;;;9.37;6.80;;;;;;;;;;5002139;28;20521;-88
2022/05/07 18:59:59;;;;;;;11.13;7.27;;;;;;;;;;5035605;28;20182;-88
2022/05/07 19:03:04;;;;;;;5.70;4.87;;;;;;;;;;5001524;28;20177;-88
2022/05/07 19:06:09;;;;;;;6.80;5.47;;;;;;;;;;5012969;28;20189;-88
2022/05/07 19:09:13;;;;;;;6.07;5.47;;;;;;;;;;5023256;28;20563;-88
2022/05/07 19:12:17;;;;;;;6.83;5.57;;;;;;;;;;5012501;28;20185;-88
2022/05/07 19:15:22;;;;;;;7.23;5.87;;;;;;;;;;5001439;28;20627;-88
2022/05/07 19:18:26;;;;;;;7.50;6.20;;;;;;;;;;5011873;28;20695;-88
2022/05/07 19:21:30;;;;;;;6.30;5.70;;;;;;;;;;5024190;28;20181;-88
2022/05/07 19:24:34;;;;;;;7.17;6.53;;;;;;;;;;5024032;28;20184;-88
2022/05/07 19:27:39;;;;;;;8.57;6.50;;;;;;;;;;5012253;28;20221;-88